sensor_id;sensor_type;location;lat;lon;timestamp;P1;durP1;ratioP1;P2;durP2;ratioP2
36501;SDS011;25393;46.108;3.390;2023-04-24T00:01:57;4.95;;;1.23;;
36501;SDS011;25393;46.108;3.390;2023-04-24T00:04:24;8.43;;;1.25;;
36501;SDS011;25393;46.108;3.390;2023-04-24T00:06:52;15.65;;;1.55;;
36501;SDS011;25393;46.108;3.390;2023-04-24T00:09:23;7.70;;;1.08;;
36501;SDS011;25393;46.108;3.390;2023-04-24T00:11:50;7.38;;;1.40;;
36501;SDS011;25393;46.108;3.390;2023-04-24T00:14:17;8.55;;;1.50;;
36501;SDS011;25393;46.108;3.390;2023-04-24T00:16:43;12.88;;;1.38;;
36501;SDS011;25393;46.108;3.390;2023-04-24T00:19:10;3.92;;;1.33;;
36501;SDS011;25393;46.108;3.390;2023-04-24T00:21:38;7.68;;;1.52;;
36501;SDS011;25393;46.108;3.390;2023-04-24T00:24:04;8.55;;;1.50;;
36501;SDS011;25393;46.108;3.390;2023-04-24T00:26:31;7.40;;;1.45;;
36501;SDS011;25393;46.108;3.390;2023-04-24T00:28:57;7.55;;;1.92;;
36501;SDS011;25393;46.108;3.390;2023-04-24T00:31:24;8.55;;;1.55;;
36501;SDS011;25393;46.108;3.390;2023-04-24T00:33:50;9.52;;;1.10;;
36501;SDS011;25393;46.108;3.390;2023-04-24T00:36:17;6.82;;;1.27;;
36501;SDS011;25393;46.108;3.390;2023-04-24T00:38:45;7.82;;;1.10;;
36501;SDS011;25393;46.108;3.390;2023-04-24T00:41:12;4.43;;;1.40;;
36501;SDS011;25393;46.108;3.390;2023-04-24T00:43:39;5.22;;;1.25;;
36501;SDS011;25393;46.108;3.390;2023-04-24T00:46:05;6.15;;;1.35;;
36501;SDS011;25393;46.108;3.390;2023-04-24T00:48:35;3.70;;;0.95;;
36501;SDS011;25393;46.108;3.390;2023-04-24T00:51:03;6.65;;;1.40;;
36501;SDS011;25393;46.108;3.390;2023-04-24T00:53:29;1.98;;;0.70;;
36501;SDS011;25393;46.108;3.390;2023-04-24T00:55:56;2.95;;;1.15;;
36501;SDS011;25393;46.108;3.390;2023-04-24T00:58:23;3.53;;;1.08;;
36501;SDS011;25393;46.108;3.390;2023-04-24T01:00:50;4.82;;;1.17;;
36501;SDS011;25393;46.108;3.390;2023-04-24T01:03:20;4.32;;;1.23;;
36501;SDS011;25393;46.108;3.390;2023-04-24T01:05:52;6.30;;;0.90;;
36501;SDS011;25393;46.108;3.390;2023-04-24T01:08:22;2.10;;;1.05;;
36501;SDS011;25393;46.108;3.390;2023-04-24T01:10:51;2.00;;;0.80;;
36501;SDS011;25393;46.108;3.390;2023-04-24T01:13:19;8.82;;;0.90;;
36501;SDS011;25393;46.108;3.390;2023-04-24T01:15:47;2.50;;;0.80;;
36501;SDS011;25393;46.108;3.390;2023-04-24T01:18:14;6.45;;;1.00;;
36501;SDS011;25393;46.108;3.390;2023-04-24T01:20:42;3.28;;;1.05;;
36501;SDS011;25393;46.108;3.390;2023-04-24T01:23:13;4.78;;;0.80;;
36501;SDS011;25393;46.108;3.390;2023-04-24T01:25:42;1.52;;;0.60;;
36501;SDS011;25393;46.108;3.390;2023-04-24T01:28:09;8.25;;;0.90;;
36501;SDS011;25393;46.108;3.390;2023-04-24T01:30:42;3.08;;;1.00;;
36501;SDS011;25393;46.108;3.390;2023-04-24T01:33:09;5.75;;;1.20;;
36501;SDS011;25393;46.108;3.390;2023-04-24T01:35:43;2.42;;;1.02;;
36501;SDS011;25393;46.108;3.390;2023-04-24T01:38:09;1.30;;;1.00;;
36501;SDS011;25393;46.108;3.390;2023-04-24T01:40:37;1.20;;;0.90;;
36501;SDS011;25393;46.108;3.390;2023-04-24T01:43:04;1.33;;;0.90;;
36501;SDS011;25393;46.108;3.390;2023-04-24T01:45:30;1.20;;;0.88;;
36501;SDS011;25393;46.108;3.390;2023-04-24T01:47:57;1.90;;;0.93;;
36501;SDS011;25393;46.108;3.390;2023-04-24T01:50:24;2.55;;;0.90;;
36501;SDS011;25393;46.108;3.390;2023-04-24T01:52:51;3.45;;;0.70;;
36501;SDS011;25393;46.108;3.390;2023-04-24T01:55:18;4.53;;;0.93;;
36501;SDS011;25393;46.108;3.390;2023-04-24T01:57:44;3.97;;;0.90;;
36501;SDS011;25393;46.108;3.390;2023-04-24T02:00:11;4.22;;;0.60;;
36501;SDS011;25393;46.108;3.390;2023-04-24T02:02:44;1.50;;;0.70;;
36501;SDS011;25393;46.108;3.390;2023-04-24T02:05:13;1.77;;;0.85;;
36501;SDS011;25393;46.108;3.390;2023-04-24T02:07:40;2.95;;;0.90;;
36501;SDS011;25393;46.108;3.390;2023-04-24T02:10:09;1.38;;;0.68;;
36501;SDS011;25393;46.108;3.390;2023-04-24T02:12:36;2.05;;;0.90;;
36501;SDS011;25393;46.108;3.390;2023-04-24T02:15:03;2.72;;;0.93;;
36501;SDS011;25393;46.108;3.390;2023-04-24T02:17:30;1.50;;;0.65;;
36501;SDS011;25393;46.108;3.390;2023-04-24T02:19:57;3.63;;;1.02;;
36501;SDS011;25393;46.108;3.390;2023-04-24T02:22:23;4.75;;;0.88;;
36501;SDS011;25393;46.108;3.390;2023-04-24T02:24:50;2.25;;;0.60;;
36501;SDS011;25393;46.108;3.390;2023-04-24T02:27:16;2.63;;;1.17;;
36501;SDS011;25393;46.108;3.390;2023-04-24T02:29:43;4.43;;;0.88;;
36501;SDS011;25393;46.108;3.390;2023-04-24T02:32:11;1.85;;;1.00;;
36501;SDS011;25393;46.108;3.390;2023-04-24T02:34:39;1.05;;;0.50;;
36501;SDS011;25393;46.108;3.390;2023-04-24T02:37:05;3.15;;;0.93;;
36501;SDS011;25393;46.108;3.390;2023-04-24T02:39:32;3.55;;;0.90;;
36501;SDS011;25393;46.108;3.390;2023-04-24T02:41:58;5.35;;;0.82;;
36501;SDS011;25393;46.108;3.390;2023-04-24T02:44:26;4.50;;;0.95;;
36501;SDS011;25393;46.108;3.390;2023-04-24T02:46:52;1.85;;;1.00;;
36501;SDS011;25393;46.108;3.390;2023-04-24T02:49:19;3.38;;;0.82;;
36501;SDS011;25393;46.108;3.390;2023-04-24T02:51:46;5.05;;;0.63;;
36501;SDS011;25393;46.108;3.390;2023-04-24T02:54:12;1.65;;;0.80;;
36501;SDS011;25393;46.108;3.390;2023-04-24T02:56:40;1.85;;;0.70;;
36501;SDS011;25393;46.108;3.390;2023-04-24T02:59:07;3.00;;;0.90;;
36501;SDS011;25393;46.108;3.390;2023-04-24T03:01:34;3.00;;;1.30;;
36501;SDS011;25393;46.108;3.390;2023-04-24T03:04:00;1.48;;;1.00;;
36501;SDS011;25393;46.108;3.390;2023-04-24T03:06:28;3.45;;;1.55;;
36501;SDS011;25393;46.108;3.390;2023-04-24T03:08:54;2.85;;;1.15;;
36501;SDS011;25393;46.108;3.390;2023-04-24T03:11:21;1.15;;;1.05;;
36501;SDS011;25393;46.108;3.390;2023-04-24T03:13:47;3.10;;;1.25;;
36501;SDS011;25393;46.108;3.390;2023-04-24T03:16:14;2.45;;;0.93;;
36501;SDS011;25393;46.108;3.390;2023-04-24T03:18:43;5.97;;;1.40;;
36501;SDS011;25393;46.108;3.390;2023-04-24T03:21:09;2.10;;;1.02;;
36501;SDS011;25393;46.108;3.390;2023-04-24T03:23:36;2.08;;;1.35;;
36501;SDS011;25393;46.108;3.390;2023-04-24T03:26:02;2.28;;;0.90;;
36501;SDS011;25393;46.108;3.390;2023-04-24T03:28:29;6.38;;;1.60;;
36501;SDS011;25393;46.108;3.390;2023-04-24T03:30:55;2.97;;;1.42;;
36501;SDS011;25393;46.108;3.390;2023-04-24T03:33:22;5.13;;;1.50;;
36501;SDS011;25393;46.108;3.390;2023-04-24T03:35:48;3.67;;;1.30;;
36501;SDS011;25393;46.108;3.390;2023-04-24T03:38:15;4.13;;;1.33;;
36501;SDS011;25393;46.108;3.390;2023-04-24T03:40:41;7.25;;;1.45;;
36501;SDS011;25393;46.108;3.390;2023-04-24T03:43:08;5.45;;;2.03;;
36501;SDS011;25393;46.108;3.390;2023-04-24T03:45:34;7.22;;;1.73;;
36501;SDS011;25393;46.108;3.390;2023-04-24T03:48:00;2.95;;;1.33;;
36501;SDS011;25393;46.108;3.390;2023-04-24T03:50:27;4.25;;;1.58;;
36501;SDS011;25393;46.108;3.390;2023-04-24T03:52:55;4.30;;;1.63;;
36501;SDS011;25393;46.108;3.390;2023-04-24T03:55:21;5.20;;;1.63;;
36501;SDS011;25393;46.108;3.390;2023-04-24T03:57:51;6.55;;;1.75;;
36501;SDS011;25393;46.108;3.390;2023-04-24T04:00:21;6.82;;;1.83;;
36501;SDS011;25393;46.108;3.390;2023-04-24T04:02:51;3.50;;;1.75;;
36501;SDS011;25393;46.108;3.390;2023-04-24T04:05:21;8.45;;;1.73;;
36501;SDS011;25393;46.108;3.390;2023-04-24T04:07:47;2.95;;;1.48;;
36501;SDS011;25393;46.108;3.390;2023-04-24T04:10:16;8.00;;;1.38;;
36501;SDS011;25393;46.108;3.390;2023-04-24T04:12:44;6.70;;;1.92;;
36501;SDS011;25393;46.108;3.390;2023-04-24T04:15:10;3.20;;;1.70;;
36501;SDS011;25393;46.108;3.390;2023-04-24T04:17:37;3.53;;;1.80;;
36501;SDS011;25393;46.108;3.390;2023-04-24T04:20:04;5.85;;;2.53;;
36501;SDS011;25393;46.108;3.390;2023-04-24T04:22:36;6.65;;;1.92;;
36501;SDS011;25393;46.108;3.390;2023-04-24T04:25:03;3.40;;;1.52;;
36501;SDS011;25393;46.108;3.390;2023-04-24T04:27:30;3.15;;;1.90;;
36501;SDS011;25393;46.108;3.390;2023-04-24T04:29:58;5.88;;;1.65;;
36501;SDS011;25393;46.108;3.390;2023-04-24T04:32:27;3.90;;;2.40;;
36501;SDS011;25393;46.108;3.390;2023-04-24T04:34:54;2.67;;;1.77;;
36501;SDS011;25393;46.108;3.390;2023-04-24T04:37:23;3.35;;;1.60;;
36501;SDS011;25393;46.108;3.390;2023-04-24T04:39:49;9.52;;;2.30;;
36501;SDS011;25393;46.108;3.390;2023-04-24T04:42:18;4.72;;;1.90;;
36501;SDS011;25393;46.108;3.390;2023-04-24T04:44:45;6.88;;;2.25;;
36501;SDS011;25393;46.108;3.390;2023-04-24T04:47:11;4.97;;;1.95;;
36501;SDS011;25393;46.108;3.390;2023-04-24T04:49:38;6.72;;;1.58;;
36501;SDS011;25393;46.108;3.390;2023-04-24T04:52:05;6.00;;;1.98;;
36501;SDS011;25393;46.108;3.390;2023-04-24T04:54:31;2.25;;;1.30;;
36501;SDS011;25393;46.108;3.390;2023-04-24T04:56:58;4.60;;;1.30;;
36501;SDS011;25393;46.108;3.390;2023-04-24T04:59:25;5.32;;;1.55;;
36501;SDS011;25393;46.108;3.390;2023-04-24T05:01:51;5.25;;;1.25;;
36501;SDS011;25393;46.108;3.390;2023-04-24T05:04:18;5.10;;;1.40;;
36501;SDS011;25393;46.108;3.390;2023-04-24T05:06:47;3.47;;;1.30;;
36501;SDS011;25393;46.108;3.390;2023-04-24T05:09:13;1.85;;;1.00;;
36501;SDS011;25393;46.108;3.390;2023-04-24T05:11:40;6.70;;;1.45;;
36501;SDS011;25393;46.108;3.390;2023-04-24T05:14:06;3.53;;;1.40;;
36501;SDS011;25393;46.108;3.390;2023-04-24T05:16:33;6.97;;;1.33;;
36501;SDS011;25393;46.108;3.390;2023-04-24T05:18:59;4.90;;;1.45;;
36501;SDS011;25393;46.108;3.390;2023-04-24T05:21:26;3.40;;;1.85;;
36501;SDS011;25393;46.108;3.390;2023-04-24T05:23:52;7.35;;;1.70;;
36501;SDS011;25393;46.108;3.390;2023-04-24T05:26:19;3.08;;;1.42;;
36501;SDS011;25393;46.108;3.390;2023-04-24T05:28:48;4.50;;;1.45;;
36501;SDS011;25393;46.108;3.390;2023-04-24T05:31:14;2.25;;;1.33;;
36501;SDS011;25393;46.108;3.390;2023-04-24T05:33:41;7.68;;;1.63;;
36501;SDS011;25393;46.108;3.390;2023-04-24T05:36:07;2.78;;;1.20;;
36501;SDS011;25393;46.108;3.390;2023-04-24T05:38:34;2.17;;;1.42;;
36501;SDS011;25393;46.108;3.390;2023-04-24T05:41:00;4.50;;;1.40;;
36501;SDS011;25393;46.108;3.390;2023-04-24T05:43:27;1.83;;;1.20;;
36501;SDS011;25393;46.108;3.390;2023-04-24T05:45:53;3.30;;;1.70;;
36501;SDS011;25393;46.108;3.390;2023-04-24T05:48:23;2.92;;;1.60;;
36501;SDS011;25393;46.108;3.390;2023-04-24T05:50:50;7.03;;;1.80;;
36501;SDS011;25393;46.108;3.390;2023-04-24T05:53:19;8.82;;;1.90;;
36501;SDS011;25393;46.108;3.390;2023-04-24T05:55:48;6.30;;;1.50;;
36501;SDS011;25393;46.108;3.390;2023-04-24T05:58:15;5.28;;;1.63;;
36501;SDS011;25393;46.108;3.390;2023-04-24T06:00:41;2.83;;;1.38;;
36501;SDS011;25393;46.108;3.390;2023-04-24T06:03:10;6.38;;;1.50;;
36501;SDS011;25393;46.108;3.390;2023-04-24T06:05:37;5.47;;;1.73;;
36501;SDS011;25393;46.108;3.390;2023-04-24T06:08:04;4.00;;;1.77;;
36501;SDS011;25393;46.108;3.390;2023-04-24T06:10:30;7.03;;;1.83;;
36501;SDS011;25393;46.108;3.390;2023-04-24T06:12:57;5.28;;;1.55;;
36501;SDS011;25393;46.108;3.390;2023-04-24T06:15:27;5.25;;;1.60;;
36501;SDS011;25393;46.108;3.390;2023-04-24T06:17:55;7.65;;;1.83;;
36501;SDS011;25393;46.108;3.390;2023-04-24T06:20:22;10.23;;;1.80;;
36501;SDS011;25393;46.108;3.390;2023-04-24T06:22:50;2.85;;;1.27;;
36501;SDS011;25393;46.108;3.390;2023-04-24T06:25:20;4.35;;;1.75;;
36501;SDS011;25393;46.108;3.390;2023-04-24T06:27:54;6.80;;;1.92;;
36501;SDS011;25393;46.108;3.390;2023-04-24T06:30:24;6.75;;;1.80;;
36501;SDS011;25393;46.108;3.390;2023-04-24T06:32:53;2.80;;;1.48;;
36501;SDS011;25393;46.108;3.390;2023-04-24T06:35:24;3.80;;;1.38;;
36501;SDS011;25393;46.108;3.390;2023-04-24T06:37:51;2.65;;;1.55;;
36501;SDS011;25393;46.108;3.390;2023-04-24T06:40:18;2.88;;;1.25;;
36501;SDS011;25393;46.108;3.390;2023-04-24T06:42:46;9.15;;;1.88;;
36501;SDS011;25393;46.108;3.390;2023-04-24T06:45:12;4.82;;;1.58;;
36501;SDS011;25393;46.108;3.390;2023-04-24T06:47:39;1.60;;;1.17;;
36501;SDS011;25393;46.108;3.390;2023-04-24T06:50:06;5.55;;;1.48;;
36501;SDS011;25393;46.108;3.390;2023-04-24T06:52:32;5.72;;;1.33;;
36501;SDS011;25393;46.108;3.390;2023-04-24T06:54:59;5.53;;;1.10;;
36501;SDS011;25393;46.108;3.390;2023-04-24T06:57:28;3.53;;;1.35;;
36501;SDS011;25393;46.108;3.390;2023-04-24T06:59:55;8.68;;;1.80;;
36501;SDS011;25393;46.108;3.390;2023-04-24T07:02:22;2.03;;;1.10;;
36501;SDS011;25393;46.108;3.390;2023-04-24T07:04:49;2.53;;;1.42;;
36501;SDS011;25393;46.108;3.390;2023-04-24T07:07:18;3.53;;;1.30;;
36501;SDS011;25393;46.108;3.390;2023-04-24T07:09:44;4.90;;;1.40;;
36501;SDS011;25393;46.108;3.390;2023-04-24T07:12:12;4.70;;;1.83;;
36501;SDS011;25393;46.108;3.390;2023-04-24T07:14:39;4.40;;;1.67;;
36501;SDS011;25393;46.108;3.390;2023-04-24T07:17:06;5.30;;;1.67;;
36501;SDS011;25393;46.108;3.390;2023-04-24T07:19:33;2.60;;;1.33;;
36501;SDS011;25393;46.108;3.390;2023-04-24T07:22:00;6.72;;;2.28;;
36501;SDS011;25393;46.108;3.390;2023-04-24T07:24:27;4.80;;;1.75;;
36501;SDS011;25393;46.108;3.390;2023-04-24T07:26:55;2.88;;;1.60;;
36501;SDS011;25393;46.108;3.390;2023-04-24T07:29:23;2.70;;;1.38;;
36501;SDS011;25393;46.108;3.390;2023-04-24T07:31:49;5.63;;;1.20;;
36501;SDS011;25393;46.108;3.390;2023-04-24T07:34:17;4.30;;;1.42;;
36501;SDS011;25393;46.108;3.390;2023-04-24T07:36:43;4.60;;;1.55;;
36501;SDS011;25393;46.108;3.390;2023-04-24T07:39:10;6.22;;;1.95;;
36501;SDS011;25393;46.108;3.390;2023-04-24T07:41:36;6.60;;;1.75;;
36501;SDS011;25393;46.108;3.390;2023-04-24T07:44:03;1.77;;;1.52;;
36501;SDS011;25393;46.108;3.390;2023-04-24T07:46:29;1.65;;;1.38;;
36501;SDS011;25393;46.108;3.390;2023-04-24T07:48:56;4.43;;;1.77;;
36501;SDS011;25393;46.108;3.390;2023-04-24T07:51:38;7.57;;;1.58;;
36501;SDS011;25393;46.108;3.390;2023-04-24T07:54:07;6.57;;;1.80;;
36501;SDS011;25393;46.108;3.390;2023-04-24T07:56:34;5.10;;;2.15;;
36501;SDS011;25393;46.108;3.390;2023-04-24T07:59:05;4.28;;;1.77;;
36501;SDS011;25393;46.108;3.390;2023-04-24T08:01:31;4.28;;;1.80;;
36501;SDS011;25393;46.108;3.390;2023-04-24T08:03:58;5.35;;;1.58;;
36501;SDS011;25393;46.108;3.390;2023-04-24T08:06:25;2.97;;;1.50;;
36501;SDS011;25393;46.108;3.390;2023-04-24T08:08:57;3.30;;;1.67;;
36501;SDS011;25393;46.108;3.390;2023-04-24T08:11:24;8.07;;;1.83;;
36501;SDS011;25393;46.108;3.390;2023-04-24T08:13:51;4.57;;;1.63;;
36501;SDS011;25393;46.108;3.390;2023-04-24T08:16:20;4.47;;;2.05;;
36501;SDS011;25393;46.108;3.390;2023-04-24T08:18:49;12.23;;;2.05;;
36501;SDS011;25393;46.108;3.390;2023-04-24T08:21:18;4.25;;;1.95;;
36501;SDS011;25393;46.108;3.390;2023-04-24T08:23:47;6.30;;;1.88;;
36501;SDS011;25393;46.108;3.390;2023-04-24T08:26:14;2.22;;;1.50;;
36501;SDS011;25393;46.108;3.390;2023-04-24T08:28:40;8.52;;;2.10;;
36501;SDS011;25393;46.108;3.390;2023-04-24T08:31:07;8.32;;;1.90;;
36501;SDS011;25393;46.108;3.390;2023-04-24T08:33:34;4.93;;;1.70;;
36501;SDS011;25393;46.108;3.390;2023-04-24T08:36:04;4.93;;;1.67;;
36501;SDS011;25393;46.108;3.390;2023-04-24T08:38:31;7.40;;;1.65;;
36501;SDS011;25393;46.108;3.390;2023-04-24T08:40:58;3.45;;;1.75;;
36501;SDS011;25393;46.108;3.390;2023-04-24T08:43:32;11.63;;;2.08;;
36501;SDS011;25393;46.108;3.390;2023-04-24T08:46:13;6.90;;;2.42;;
36501;SDS011;25393;46.108;3.390;2023-04-24T08:48:42;7.50;;;2.00;;
36501;SDS011;25393;46.108;3.390;2023-04-24T08:51:10;6.28;;;1.85;;
36501;SDS011;25393;46.108;3.390;2023-04-24T08:53:37;11.27;;;1.90;;
36501;SDS011;25393;46.108;3.390;2023-04-24T08:56:04;5.30;;;1.90;;
36501;SDS011;25393;46.108;3.390;2023-04-24T08:58:31;8.77;;;1.70;;
36501;SDS011;25393;46.108;3.390;2023-04-24T09:00:59;7.80;;;4.32;;
36501;SDS011;25393;46.108;3.390;2023-04-24T09:03:27;6.60;;;1.67;;
36501;SDS011;25393;46.108;3.390;2023-04-24T09:05:55;4.20;;;1.67;;
36501;SDS011;25393;46.108;3.390;2023-04-24T09:08:24;5.55;;;2.38;;
36501;SDS011;25393;46.108;3.390;2023-04-24T09:10:54;11.68;;;2.20;;
36501;SDS011;25393;46.108;3.390;2023-04-24T09:13:21;4.80;;;1.70;;
36501;SDS011;25393;46.108;3.390;2023-04-24T09:15:53;4.70;;;2.08;;
36501;SDS011;25393;46.108;3.390;2023-04-24T09:18:21;8.18;;;1.90;;
36501;SDS011;25393;46.108;3.390;2023-04-24T09:21:11;9.30;;;1.90;;
36501;SDS011;25393;46.108;3.390;2023-04-24T09:23:38;3.45;;;1.67;;
36501;SDS011;25393;46.108;3.390;2023-04-24T09:26:05;5.07;;;1.50;;
36501;SDS011;25393;46.108;3.390;2023-04-24T09:28:34;10.48;;;2.00;;
36501;SDS011;25393;46.108;3.390;2023-04-24T09:31:03;5.95;;;2.00;;
36501;SDS011;25393;46.108;3.390;2023-04-24T09:33:39;8.40;;;2.20;;
36501;SDS011;25393;46.108;3.390;2023-04-24T09:36:05;3.70;;;1.73;;
36501;SDS011;25393;46.108;3.390;2023-04-24T09:38:33;6.43;;;1.92;;
36501;SDS011;25393;46.108;3.390;2023-04-24T09:41:04;4.32;;;1.90;;
36501;SDS011;25393;46.108;3.390;2023-04-24T09:43:32;9.93;;;2.05;;
36501;SDS011;25393;46.108;3.390;2023-04-24T09:46:04;8.48;;;1.83;;
36501;SDS011;25393;46.108;3.390;2023-04-24T09:48:36;20.50;;;1.98;;
36501;SDS011;25393;46.108;3.390;2023-04-24T09:51:04;5.68;;;1.90;;
36501;SDS011;25393;46.108;3.390;2023-04-24T09:53:37;7.30;;;1.80;;
36501;SDS011;25393;46.108;3.390;2023-04-24T09:56:09;4.93;;;1.40;;
36501;SDS011;25393;46.108;3.390;2023-04-24T09:58:36;8.73;;;1.95;;
36501;SDS011;25393;46.108;3.390;2023-04-24T10:01:04;5.65;;;2.05;;
36501;SDS011;25393;46.108;3.390;2023-04-24T10:03:34;4.20;;;1.77;;
36501;SDS011;25393;46.108;3.390;2023-04-24T10:06:02;3.85;;;1.58;;
36501;SDS011;25393;46.108;3.390;2023-04-24T10:08:36;3.92;;;1.30;;
36501;SDS011;25393;46.108;3.390;2023-04-24T10:11:04;7.43;;;1.73;;
36501;SDS011;25393;46.108;3.390;2023-04-24T10:13:31;9.88;;;1.80;;
36501;SDS011;25393;46.108;3.390;2023-04-24T10:15:58;6.15;;;2.28;;
36501;SDS011;25393;46.108;3.390;2023-04-24T10:18:28;7.28;;;1.90;;
36501;SDS011;25393;46.108;3.390;2023-04-24T10:20:56;4.55;;;1.95;;
36501;SDS011;25393;46.108;3.390;2023-04-24T10:23:23;5.05;;;2.08;;
36501;SDS011;25393;46.108;3.390;2023-04-24T10:25:54;8.05;;;2.28;;
36501;SDS011;25393;46.108;3.390;2023-04-24T10:28:21;14.38;;;2.13;;
36501;SDS011;25393;46.108;3.390;2023-04-24T10:30:55;6.05;;;1.60;;
36501;SDS011;25393;46.108;3.390;2023-04-24T10:33:25;5.20;;;2.10;;
36501;SDS011;25393;46.108;3.390;2023-04-24T10:35:55;8.80;;;1.90;;
36501;SDS011;25393;46.108;3.390;2023-04-24T10:38:25;7.95;;;2.20;;
36501;SDS011;25393;46.108;3.390;2023-04-24T10:40:57;7.18;;;3.05;;
36501;SDS011;25393;46.108;3.390;2023-04-24T10:43:34;3.20;;;1.80;;
36501;SDS011;25393;46.108;3.390;2023-04-24T10:46:02;10.13;;;2.00;;
36501;SDS011;25393;46.108;3.390;2023-04-24T10:48:30;4.25;;;1.30;;
36501;SDS011;25393;46.108;3.390;2023-04-24T10:50:58;8.48;;;1.60;;
36501;SDS011;25393;46.108;3.390;2023-04-24T10:53:28;4.55;;;2.03;;
36501;SDS011;25393;46.108;3.390;2023-04-24T10:58:38;8.65;;;2.03;;
36501;SDS011;25393;46.108;3.390;2023-04-24T11:01:06;7.53;;;1.90;;
36501;SDS011;25393;46.108;3.390;2023-04-24T11:03:34;4.13;;;1.58;;
36501;SDS011;25393;46.108;3.390;2023-04-24T11:06:06;6.15;;;2.08;;
36501;SDS011;25393;46.108;3.390;2023-04-24T11:08:44;6.20;;;1.77;;
36501;SDS011;25393;46.108;3.390;2023-04-24T11:11:12;8.05;;;1.80;;
36501;SDS011;25393;46.108;3.390;2023-04-24T11:16:29;9.73;;;2.53;;
36501;SDS011;25393;46.108;3.390;2023-04-24T11:19:08;12.23;;;2.38;;
36501;SDS011;25393;46.108;3.390;2023-04-24T11:21:39;5.95;;;1.67;;
36501;SDS011;25393;46.108;3.390;2023-04-24T11:24:26;7.70;;;1.75;;
36501;SDS011;25393;46.108;3.390;2023-04-24T11:35:46;5.07;;;1.55;;
36501;SDS011;25393;46.108;3.390;2023-04-24T11:38:16;4.90;;;2.15;;
36501;SDS011;25393;46.108;3.390;2023-04-24T11:40:50;10.45;;;2.08;;
36501;SDS011;25393;46.108;3.390;2023-04-24T11:43:18;4.25;;;1.83;;
36501;SDS011;25393;46.108;3.390;2023-04-24T11:45:48;7.20;;;1.92;;
36501;SDS011;25393;46.108;3.390;2023-04-24T11:48:19;6.05;;;2.80;;
36501;SDS011;25393;46.108;3.390;2023-04-24T11:50:49;8.55;;;2.90;;
36501;SDS011;25393;46.108;3.390;2023-04-24T11:53:18;10.27;;;1.80;;
36501;SDS011;25393;46.108;3.390;2023-04-24T11:55:46;3.30;;;2.03;;
36501;SDS011;25393;46.108;3.390;2023-04-24T11:58:13;8.25;;;1.80;;
36501;SDS011;25393;46.108;3.390;2023-04-24T12:00:39;4.72;;;2.30;;
36501;SDS011;25393;46.108;3.390;2023-04-24T12:03:07;3.60;;;1.70;;
36501;SDS011;25393;46.108;3.390;2023-04-24T12:05:35;7.60;;;1.92;;
36501;SDS011;25393;46.108;3.390;2023-04-24T12:08:02;7.93;;;3.42;;
36501;SDS011;25393;46.108;3.390;2023-04-24T12:10:29;5.70;;;4.72;;
36501;SDS011;25393;46.108;3.390;2023-04-24T12:12:57;10.80;;;6.45;;
36501;SDS011;25393;46.108;3.390;2023-04-24T12:15:27;3.83;;;2.47;;
36501;SDS011;25393;46.108;3.390;2023-04-24T12:17:58;7.45;;;4.10;;
36501;SDS011;25393;46.108;3.390;2023-04-24T12:20:29;6.53;;;3.60;;
36501;SDS011;25393;46.108;3.390;2023-04-24T12:22:57;10.20;;;3.47;;
36501;SDS011;25393;46.108;3.390;2023-04-24T12:25:29;4.13;;;3.47;;
36501;SDS011;25393;46.108;3.390;2023-04-24T12:30:31;11.35;;;4.15;;
36501;SDS011;25393;46.108;3.390;2023-04-24T12:33:02;5.40;;;4.00;;
36501;SDS011;25393;46.108;3.390;2023-04-24T12:35:30;4.93;;;3.70;;
36501;SDS011;25393;46.108;3.390;2023-04-24T12:40:39;8.10;;;4.15;;
36501;SDS011;25393;46.108;3.390;2023-04-24T12:43:14;10.30;;;4.25;;
36501;SDS011;25393;46.108;3.390;2023-04-24T12:45:42;6.20;;;3.92;;
36501;SDS011;25393;46.108;3.390;2023-04-24T12:48:08;6.70;;;4.00;;
36501;SDS011;25393;46.108;3.390;2023-04-24T12:50:35;10.95;;;4.28;;
36501;SDS011;25393;46.108;3.390;2023-04-24T12:53:02;4.80;;;3.80;;
36501;SDS011;25393;46.108;3.390;2023-04-24T12:55:28;4.32;;;3.92;;
36501;SDS011;25393;46.108;3.390;2023-04-24T12:57:55;5.03;;;3.67;;
36501;SDS011;25393;46.108;3.390;2023-04-24T13:00:22;9.40;;;4.20;;
36501;SDS011;25393;46.108;3.390;2023-04-24T13:02:49;9.15;;;4.32;;
36501;SDS011;25393;46.108;3.390;2023-04-24T13:05:16;10.82;;;3.85;;
36501;SDS011;25393;46.108;3.390;2023-04-24T13:07:42;10.35;;;4.00;;
36501;SDS011;25393;46.108;3.390;2023-04-24T13:10:09;11.63;;;4.60;;
36501;SDS011;25393;46.108;3.390;2023-04-24T13:12:36;7.70;;;4.07;;
36501;SDS011;25393;46.108;3.390;2023-04-24T13:15:03;9.60;;;3.90;;
36501;SDS011;25393;46.108;3.390;2023-04-24T13:17:31;10.32;;;4.15;;
36501;SDS011;25393;46.108;3.390;2023-04-24T13:19:57;10.23;;;3.70;;
36501;SDS011;25393;46.108;3.390;2023-04-24T13:22:27;6.03;;;3.72;;
36501;SDS011;25393;46.108;3.390;2023-04-24T13:24:56;10.68;;;3.88;;
36501;SDS011;25393;46.108;3.390;2023-04-24T13:27:24;14.02;;;4.30;;
36501;SDS011;25393;46.108;3.390;2023-04-24T13:29:50;5.25;;;3.40;;
36501;SDS011;25393;46.108;3.390;2023-04-24T13:32:17;4.90;;;3.50;;
36501;SDS011;25393;46.108;3.390;2023-04-24T13:34:43;5.93;;;3.20;;
36501;SDS011;25393;46.108;3.390;2023-04-24T13:37:10;7.03;;;3.58;;
36501;SDS011;25393;46.108;3.390;2023-04-24T13:39:37;7.53;;;3.90;;
36501;SDS011;25393;46.108;3.390;2023-04-24T13:42:03;5.60;;;3.45;;
36501;SDS011;25393;46.108;3.390;2023-04-24T13:44:33;5.13;;;3.78;;
36501;SDS011;25393;46.108;3.390;2023-04-24T13:47:03;7.90;;;3.95;;
36501;SDS011;25393;46.108;3.390;2023-04-24T13:49:30;8.00;;;4.13;;
36501;SDS011;25393;46.108;3.390;2023-04-24T13:52:02;6.35;;;3.88;;
36501;SDS011;25393;46.108;3.390;2023-04-24T13:54:28;4.53;;;3.45;;
36501;SDS011;25393;46.108;3.390;2023-04-24T13:56:57;5.97;;;3.35;;
36501;SDS011;25393;46.108;3.390;2023-04-24T13:59:26;11.07;;;3.70;;
36501;SDS011;25393;46.108;3.390;2023-04-24T14:01:53;6.28;;;3.58;;
36501;SDS011;25393;46.108;3.390;2023-04-24T14:04:19;6.63;;;3.60;;
36501;SDS011;25393;46.108;3.390;2023-04-24T14:06:46;8.63;;;3.70;;
36501;SDS011;25393;46.108;3.390;2023-04-24T14:09:13;5.30;;;3.40;;
36501;SDS011;25393;46.108;3.390;2023-04-24T14:11:39;4.00;;;3.42;;
36501;SDS011;25393;46.108;3.390;2023-04-24T14:14:06;9.10;;;4.55;;
36501;SDS011;25393;46.108;3.390;2023-04-24T14:16:34;6.70;;;3.58;;
36501;SDS011;25393;46.108;3.390;2023-04-24T14:19:01;3.72;;;3.40;;
36501;SDS011;25393;46.108;3.390;2023-04-24T14:21:28;7.40;;;4.22;;
36501;SDS011;25393;46.108;3.390;2023-04-24T14:23:56;9.35;;;4.05;;
36501;SDS011;25393;46.108;3.390;2023-04-24T14:26:23;9.98;;;3.90;;
36501;SDS011;25393;46.108;3.390;2023-04-24T14:28:50;7.85;;;4.88;;
36501;SDS011;25393;46.108;3.390;2023-04-24T14:31:23;9.23;;;3.75;;
36501;SDS011;25393;46.108;3.390;2023-04-24T14:33:49;7.55;;;4.40;;
36501;SDS011;25393;46.108;3.390;2023-04-24T14:36:16;6.22;;;3.30;;
36501;SDS011;25393;46.108;3.390;2023-04-24T14:38:42;7.53;;;3.40;;
36501;SDS011;25393;46.108;3.390;2023-04-24T14:41:09;9.05;;;4.00;;
36501;SDS011;25393;46.108;3.390;2023-04-24T14:43:39;7.28;;;3.75;;
36501;SDS011;25393;46.108;3.390;2023-04-24T14:46:06;8.68;;;3.65;;
36501;SDS011;25393;46.108;3.390;2023-04-24T14:48:33;11.02;;;3.90;;
36501;SDS011;25393;46.108;3.390;2023-04-24T14:51:03;4.20;;;3.70;;
36501;SDS011;25393;46.108;3.390;2023-04-24T14:53:32;6.07;;;3.33;;
36501;SDS011;25393;46.108;3.390;2023-04-24T14:55:59;8.07;;;3.65;;
36501;SDS011;25393;46.108;3.390;2023-04-24T14:58:26;5.80;;;3.60;;
36501;SDS011;25393;46.108;3.390;2023-04-24T15:00:53;7.53;;;3.75;;
36501;SDS011;25393;46.108;3.390;2023-04-24T15:03:20;7.35;;;3.65;;
36501;SDS011;25393;46.108;3.390;2023-04-24T15:05:48;7.93;;;4.00;;
36501;SDS011;25393;46.108;3.390;2023-04-24T15:08:15;10.63;;;3.80;;
36501;SDS011;25393;46.108;3.390;2023-04-24T15:10:41;12.43;;;3.55;;